createdAt,value
2024-01-24T00:00:09.751Z,105541.84
2024-01-24T00:02:42.563Z,105590.19
2024-01-24T00:05:11.331Z,105632.50
2024-01-24T00:07:40.149Z,105687.38
2024-01-24T00:10:10.637Z,105651.88
2024-01-24T00:12:39.495Z,105736.50
2024-01-24T00:15:09.022Z,105755.63
2024-01-24T00:17:37.668Z,105762.91
2024-01-24T00:20:10.311Z,105797.72
2024-01-24T00:22:39.063Z,105822.72
2024-01-24T00:25:08.213Z,105841.41
2024-01-24T00:27:37.014Z,105867.56
2024-01-24T00:30:07.322Z,105883.28
2024-01-24T00:32:35.926Z,105923.72
2024-01-24T00:35:05.081Z,105921.41
2024-01-24T00:37:35.146Z,105946.19
2024-01-24T00:40:04.379Z,105989.91
2024-01-24T00:42:33.055Z,105989.66
2024-01-24T00:45:00.864Z,106006.09
2024-01-24T00:47:29.865Z,106002.06
2024-01-24T00:49:58.622Z,106029.91
2024-01-24T00:52:27.201Z,106080.88
2024-01-24T00:54:57.227Z,106038.41
2024-01-24T00:57:25.960Z,106136.38
2024-01-24T00:59:54.658Z,106175.28
2024-01-24T01:02:23.356Z,106188.84
2024-01-24T01:04:52.120Z,106228.41
2024-01-24T01:07:20.835Z,106255.31
2024-01-24T01:09:49.579Z,106278.72
2024-01-24T01:12:20.179Z,106255.03
2024-01-24T01:14:49.495Z,106292.50
2024-01-24T01:17:18.088Z,106308.44
2024-01-24T01:19:46.706Z,106298.84
2024-01-24T01:22:15.618Z,106299.31
2024-01-24T01:24:44.544Z,106338.34
2024-01-24T01:27:13.414Z,106293.06
2024-01-24T01:29:43.445Z,106331.44
2024-01-24T01:32:12.090Z,106349.84
2024-01-24T01:34:40.892Z,106335.78
2024-01-24T01:37:09.660Z,106338.50
2024-01-24T01:39:38.606Z,106269.66
2024-01-24T01:42:07.373Z,106302.66
2024-01-24T01:44:48.313Z,106375.91
2024-01-24T01:47:18.426Z,106341.09
2024-01-24T01:49:47.619Z,106333.53
2024-01-24T01:52:17.803Z,106391.06
2024-01-24T01:54:47.850Z,106434.38
2024-01-24T01:57:16.847Z,106432.63
2024-01-24T01:59:46.567Z,106430.06
2024-01-24T02:02:17.639Z,106431.19
2024-01-24T02:04:46.787Z,106449.28
2024-01-24T02:09:45.699Z,106522.69
2024-01-24T02:12:14.445Z,106503.94
2024-01-24T02:14:43.314Z,106567.22
2024-01-24T02:17:12.089Z,106561.44
2024-01-24T02:19:43.276Z,106573.38
2024-01-24T02:22:12.018Z,106589.16
2024-01-24T02:24:41.986Z,106629.47
2024-01-24T02:27:11.243Z,106629.31
2024-01-24T02:29:39.964Z,106663.63
2024-01-24T02:32:08.938Z,106651.19
2024-01-24T02:34:37.694Z,106662.84
2024-01-24T02:37:06.502Z,106595.72
2024-01-24T02:39:35.190Z,106749.16
2024-01-24T02:42:06.109Z,106837.47
2024-01-24T02:44:34.862Z,106868.38
2024-01-24T02:47:03.637Z,106880.41
2024-01-24T02:49:32.885Z,106920.91
2024-01-24T02:52:03.185Z,106931.53
2024-01-24T02:54:32.153Z,106984.53
2024-01-24T02:57:00.876Z,107038.78
2024-01-24T02:59:31.186Z,107052.47
2024-01-24T03:01:59.727Z,107000.75
2024-01-24T03:04:28.494Z,107064.16
2024-01-24T03:06:57.363Z,107060.97
2024-01-24T03:09:26.124Z,107059.16
2024-01-24T03:11:54.800Z,107095.91
2024-01-24T03:14:23.448Z,107066.22
2024-01-24T03:16:53.558Z,106935.28
2024-01-24T03:19:22.304Z,107104.91
2024-01-24T03:21:51.116Z,107186.34
2024-01-24T03:24:19.882Z,107222.53
2024-01-24T03:26:48.486Z,107231.56
2024-01-24T03:29:17.336Z,107214.50
2024-01-24T03:31:46.192Z,107272.75
2024-01-24T03:34:16.274Z,107288.75
2024-01-24T03:36:45.048Z,107272.38
2024-01-24T03:39:13.872Z,107278.16
2024-01-24T03:41:42.486Z,107275.63
2024-01-24T03:44:11.288Z,107287.72
2024-01-24T03:46:40.025Z,107310.31
2024-01-24T03:49:08.859Z,107287.72
2024-01-24T03:51:38.945Z,107325.06
2024-01-24T03:54:07.762Z,107327.94
2024-01-24T03:56:36.387Z,107379.63
2024-01-24T03:59:05.154Z,107392.44
2024-01-24T04:01:33.959Z,107444.72
2024-01-24T04:04:02.766Z,107480.31
2024-01-24T04:06:31.548Z,107460.84
2024-01-24T04:09:01.755Z,107535.03
2024-01-24T04:11:30.353Z,107518.13
2024-01-24T04:13:59.031Z,107528.56
2024-01-24T04:16:27.768Z,107557.38
2024-01-24T04:18:56.599Z,107608.72
2024-01-24T04:21:25.383Z,107645.88
2024-01-24T04:23:54.051Z,107663.88
2024-01-24T04:26:24.391Z,107617.69
2024-01-24T04:28:53.353Z,107587.41
2024-01-24T04:31:22.013Z,107558.47
2024-01-24T04:33:50.735Z,107544.09
2024-01-24T04:36:19.422Z,107459.91
2024-01-24T04:38:48.137Z,107393.91
2024-01-24T04:41:16.764Z,107434.19
2024-01-24T04:43:46.777Z,107415.44
2024-01-24T04:46:16.138Z,107280.78
2024-01-24T04:48:46.290Z,107311.00
2024-01-24T04:51:15.138Z,107253.03
2024-01-24T04:53:43.751Z,107148.94
2024-01-24T04:56:12.846Z,107136.91
2024-01-24T04:58:42.890Z,107061.56
2024-01-24T05:01:13.670Z,107003.38
2024-01-24T05:03:42.538Z,106908.00
2024-01-24T05:06:11.912Z,106765.38
2024-01-24T05:08:41.362Z,106600.91
2024-01-24T05:11:10.136Z,106473.94
2024-01-24T05:13:38.981Z,106338.28
2024-01-24T05:16:08.086Z,106053.13
2024-01-24T05:18:38.228Z,105943.50
2024-01-24T05:21:06.970Z,105959.22
2024-01-24T05:23:35.675Z,105845.03
2024-01-24T05:26:04.602Z,105624.72
2024-01-24T05:28:33.249Z,104776.25
2024-01-24T05:31:01.962Z,104717.03
2024-01-24T05:33:30.827Z,104646.34
2024-01-24T05:36:00.955Z,104573.44
2024-01-24T05:38:30.968Z,104507.53
2024-01-24T05:40:59.606Z,104485.19
2024-01-24T05:43:28.332Z,104410.06
2024-01-24T05:45:57.207Z,104356.69
2024-01-24T05:48:25.929Z,104289.69
2024-01-24T05:50:54.732Z,104222.28
2024-01-24T05:53:25.345Z,104183.34
2024-01-24T05:55:54.024Z,104082.72
2024-01-24T05:58:22.728Z,103982.88
2024-01-24T06:00:54.730Z,103927.66
2024-01-24T06:03:23.542Z,103888.47
2024-01-24T06:05:52.943Z,103826.56
2024-01-24T06:08:21.733Z,103737.69
2024-01-24T06:10:52.266Z,103521.84
2024-01-24T06:13:20.897Z,103578.38
2024-01-24T06:15:49.738Z,103524.22
2024-01-24T06:18:18.686Z,103432.47
2024-01-24T06:20:48.355Z,103301.28
2024-01-24T06:23:17.301Z,103132.84
2024-01-24T06:25:46.072Z,102935.47
2024-01-24T06:28:16.157Z,102770.59
2024-01-24T06:30:44.900Z,102601.69
2024-01-24T06:33:16.013Z,102414.31
2024-01-24T06:35:44.730Z,102222.38
2024-01-24T06:38:14.147Z,102053.59
2024-01-24T06:40:42.975Z,101893.19
2024-01-24T06:43:13.660Z,101735.34
2024-01-24T06:45:43.921Z,101612.06
2024-01-24T06:48:12.590Z,101522.84
2024-01-24T06:50:41.463Z,101438.22
2024-01-24T06:53:11.925Z,101353.44
2024-01-24T06:55:40.668Z,101295.91
2024-01-24T06:58:10.099Z,101238.16
2024-01-24T07:00:38.977Z,101181.22
2024-01-24T07:03:09.151Z,101156.28
2024-01-24T07:05:38.042Z,101125.41
2024-01-24T07:08:07.549Z,101114.34
2024-01-24T07:10:36.296Z,101013.91
2024-01-24T07:13:06.201Z,101077.44
2024-01-24T07:15:34.941Z,101085.38
2024-01-24T07:18:04.713Z,101080.38
2024-01-24T07:20:34.849Z,101101.66
2024-01-24T07:23:03.830Z,101105.13
2024-01-24T07:25:32.538Z,101121.28
2024-01-24T07:28:01.159Z,101096.31
2024-01-24T07:30:29.961Z,101106.41
2024-01-24T07:32:58.690Z,101113.69
2024-01-24T07:35:27.313Z,101115.69
2024-01-24T07:37:57.476Z,101019.97
2024-01-24T07:40:27.048Z,101078.75
2024-01-24T07:42:56.472Z,101016.50
2024-01-24T07:45:26.649Z,101059.56
2024-01-24T07:47:55.448Z,101039.97
2024-01-24T07:50:24.587Z,101026.09
2024-01-24T07:52:53.430Z,100990.03
2024-01-24T07:55:28.687Z,100959.44
2024-01-24T07:58:06.265Z,100926.25
2024-01-24T08:00:35.839Z,100899.34
2024-01-24T08:03:05.633Z,100887.59
2024-01-24T08:05:34.348Z,100851.13
2024-01-24T08:08:05.305Z,100819.81
2024-01-24T08:10:35.871Z,100675.25
2024-01-24T08:13:04.773Z,100770.91
2024-01-24T08:15:33.807Z,100750.53
2024-01-24T08:18:02.832Z,100724.41
2024-01-24T08:20:31.535Z,100708.75
2024-01-24T08:23:00.385Z,100717.56
2024-01-24T08:25:29.048Z,100665.88
2024-01-24T08:27:59.296Z,100674.06
2024-01-24T08:30:28.089Z,100674.41
2024-01-24T08:32:56.986Z,100667.38
2024-01-24T08:35:25.773Z,100655.88
2024-01-24T08:37:54.526Z,100654.38
2024-01-24T08:40:23.291Z,100636.63
2024-01-24T08:42:52.244Z,100637.59
2024-01-24T08:45:22.693Z,100635.84
2024-01-24T08:47:52.485Z,100639.38
2024-01-24T08:50:23.446Z,100615.81
2024-01-24T08:52:52.878Z,100628.31
2024-01-24T08:55:22.167Z,100627.06
2024-01-24T08:57:51.291Z,100605.53
2024-01-24T09:00:22.121Z,100634.25
2024-01-24T09:02:51.123Z,100639.50
2024-01-24T09:05:22.281Z,100655.97
2024-01-24T09:07:51.098Z,100668.00
2024-01-24T09:10:19.988Z,100667.41
2024-01-24T09:12:49.611Z,100670.69
2024-01-24T09:15:18.615Z,100688.84
2024-01-24T09:17:49.340Z,100702.56
2024-01-24T09:20:19.443Z,100703.63
2024-01-24T09:22:48.560Z,100721.91
2024-01-24T09:25:17.911Z,100748.44
2024-01-24T09:27:47.283Z,100735.28
2024-01-24T09:30:16.651Z,100729.41
2024-01-24T09:32:45.576Z,100723.88
2024-01-24T09:35:16.069Z,100718.00
2024-01-24T09:37:45.282Z,100707.75
2024-01-24T09:40:17.516Z,100695.97
2024-01-24T09:42:47.221Z,100699.28
2024-01-24T09:45:19.229Z,100696.63
2024-01-24T09:47:49.868Z,100675.22
2024-01-24T09:50:22.889Z,100706.59
2024-01-24T09:52:55.500Z,100686.53
2024-01-24T09:55:25.289Z,100684.50
2024-01-24T09:57:54.173Z,100683.50
2024-01-24T10:00:23.125Z,100689.13
2024-01-24T10:02:52.608Z,100682.81
2024-01-24T10:05:22.132Z,100692.88
2024-01-24T10:07:52.057Z,100700.63
2024-01-24T10:10:20.740Z,100710.50
2024-01-24T10:12:49.741Z,100715.41
2024-01-24T10:15:19.405Z,100707.66
2024-01-24T10:17:48.553Z,100690.13
2024-01-24T10:20:17.396Z,100684.75
2024-01-24T10:22:47.823Z,100673.34
2024-01-24T10:25:18.888Z,100679.78
2024-01-24T10:27:47.833Z,100687.81
2024-01-24T10:30:17.331Z,100679.75
2024-01-24T10:32:48.492Z,100691.44
2024-01-24T10:35:18.182Z,100683.06
2024-01-24T10:37:49.000Z,100694.00
2024-01-24T10:40:18.270Z,100689.41
2024-01-24T10:42:49.563Z,100704.06
2024-01-24T10:45:21.853Z,100682.78
2024-01-24T10:47:52.817Z,100714.94
2024-01-24T10:50:23.009Z,100704.09
2024-01-24T10:52:55.074Z,100708.00
2024-01-24T10:55:24.715Z,100703.28
2024-01-24T10:57:55.698Z,100731.63
2024-01-24T11:00:26.896Z,100751.16
2024-01-24T11:02:55.875Z,100749.66
2024-01-24T11:05:31.657Z,100746.63
2024-01-24T11:08:06.215Z,100718.97
2024-01-24T11:10:38.727Z,100740.19
2024-01-24T11:13:08.283Z,100752.56
2024-01-24T11:15:37.992Z,100729.66
2024-01-24T11:18:28.206Z,100738.47
2024-01-24T11:21:00.334Z,100739.28
2024-01-24T11:23:39.991Z,100768.97
2024-01-24T11:26:11.137Z,100731.72
2024-01-24T11:28:40.648Z,100726.03
2024-01-24T11:31:10.217Z,100751.88
2024-01-24T11:33:47.615Z,100742.88
2024-01-24T11:36:16.584Z,100744.28
2024-01-24T11:38:47.163Z,100695.31
2024-01-24T11:41:27.841Z,100729.50
2024-01-24T11:43:58.679Z,100749.13
2024-01-24T11:46:28.698Z,100737.41
2024-01-24T11:49:08.118Z,100757.78
2024-01-24T11:51:37.541Z,100727.28
2024-01-24T11:54:07.813Z,100761.94
2024-01-24T11:56:37.592Z,100800.94
2024-01-24T11:59:06.292Z,100834.53
2024-01-24T12:01:35.305Z,100859.97
2024-01-24T12:04:05.455Z,100884.88
2024-01-24T12:06:36.937Z,100893.03
2024-01-24T12:09:09.426Z,100922.91
2024-01-24T12:11:38.135Z,100917.25
2024-01-24T12:14:06.946Z,100934.34
2024-01-24T12:16:39.599Z,100941.84
2024-01-24T12:19:10.377Z,100925.50
2024-01-24T12:21:39.965Z,100924.22
2024-01-24T12:24:10.790Z,100923.66
2024-01-24T12:26:42.006Z,100913.44
2024-01-24T12:29:11.313Z,100898.88
2024-01-24T12:31:42.555Z,100926.28
2024-01-24T12:34:11.638Z,100928.94
2024-01-24T12:36:44.426Z,100952.47
2024-01-24T12:39:14.606Z,100978.22
2024-01-24T12:41:43.619Z,100999.34
2024-01-24T12:44:12.524Z,101012.13
2024-01-24T12:46:41.688Z,101030.00
2024-01-24T12:49:10.671Z,101037.44
2024-01-24T12:51:41.508Z,101086.09
2024-01-24T12:54:10.399Z,101108.13
2024-01-24T12:56:40.566Z,101123.59
2024-01-24T12:59:09.715Z,101124.47
2024-01-24T13:01:38.595Z,101010.06
2024-01-24T13:04:07.590Z,101122.09
2024-01-24T13:06:37.878Z,101133.22
2024-01-24T13:09:07.313Z,101151.03
2024-01-24T13:11:36.126Z,101165.28
2024-01-24T13:14:06.227Z,101164.88
2024-01-24T13:16:36.028Z,101184.28
2024-01-24T13:19:05.214Z,101189.09
2024-01-24T13:21:34.046Z,101193.47
2024-01-24T13:24:04.682Z,101219.94
2024-01-24T13:26:33.518Z,101232.41
2024-01-24T13:29:02.628Z,101237.56
2024-01-24T13:31:34.095Z,101238.47
2024-01-24T13:34:03.245Z,101253.03
2024-01-24T13:36:33.006Z,101260.59
2024-01-24T13:39:01.973Z,101283.91
2024-01-24T13:41:30.783Z,101301.97
2024-01-24T13:43:59.685Z,101310.28
2024-01-24T13:46:28.421Z,101330.44
2024-01-24T13:48:59.735Z,101360.38
2024-01-24T13:51:38.676Z,101270.78
2024-01-24T13:54:12.012Z,101405.88
2024-01-24T13:56:40.708Z,101420.22
2024-01-24T13:59:10.623Z,101446.59
2024-01-24T14:01:45.236Z,101450.38
2024-01-24T14:04:16.648Z,101465.91
2024-01-24T14:06:46.392Z,101468.41
2024-01-24T14:09:15.819Z,101466.78
2024-01-24T14:11:45.370Z,101363.06
2024-01-24T14:14:14.127Z,101453.41
2024-01-24T14:16:42.742Z,101453.28
2024-01-24T14:19:12.283Z,101465.41
2024-01-24T14:21:42.693Z,101470.56
2024-01-24T14:24:11.491Z,101457.78
2024-01-24T14:26:40.284Z,101437.38
2024-01-24T14:29:09.435Z,101464.19
2024-01-24T14:31:39.203Z,101458.91
2024-01-24T14:34:08.183Z,101509.56
2024-01-24T14:36:37.827Z,101535.88
2024-01-24T14:39:09.027Z,101563.53
2024-01-24T14:41:38.246Z,101584.97
2024-01-24T14:44:07.044Z,101613.47
2024-01-24T14:46:35.769Z,101621.66
2024-01-24T14:49:04.730Z,101565.75
2024-01-24T14:51:33.445Z,101689.94
2024-01-24T14:54:02.255Z,101700.13
2024-01-24T14:56:32.483Z,101715.28
2024-01-24T14:59:02.410Z,101726.50
2024-01-24T15:01:31.289Z,101744.69
2024-01-24T15:04:00.221Z,101766.97
2024-01-24T15:06:29.198Z,101780.38
2024-01-24T15:08:57.961Z,101801.41
2024-01-24T15:11:26.694Z,101782.44
2024-01-24T15:13:56.674Z,101783.44
2024-01-24T15:16:25.921Z,101802.28
2024-01-24T15:18:55.554Z,101794.94
2024-01-24T15:21:24.310Z,101803.69
2024-01-24T15:23:53.751Z,101802.53
2024-01-24T15:26:22.473Z,101818.66
2024-01-24T15:28:51.296Z,101842.06
2024-01-24T15:31:21.422Z,101758.19
2024-01-24T15:33:51.152Z,101877.63
2024-01-24T15:36:21.019Z,101894.75
2024-01-24T15:38:52.095Z,101910.75
2024-01-24T15:41:20.986Z,101934.06
2024-01-24T15:43:49.756Z,101938.56
2024-01-24T15:46:21.862Z,101958.13
2024-01-24T15:48:52.071Z,101949.78
2024-01-24T15:51:20.945Z,101945.00
2024-01-24T15:53:50.101Z,101937.13
2024-01-24T15:56:19.861Z,101944.09
2024-01-24T15:58:48.579Z,101827.81
2024-01-24T16:01:17.450Z,101927.22
2024-01-24T16:03:47.830Z,101924.50
2024-01-24T16:06:16.582Z,101901.31
2024-01-24T16:08:46.323Z,101891.00
2024-01-24T16:11:15.115Z,101860.88
2024-01-24T16:13:44.466Z,101822.09
2024-01-24T16:16:17.312Z,101778.31
2024-01-24T16:18:49.450Z,101723.44
2024-01-24T16:21:19.528Z,101683.59
2024-01-24T16:23:48.391Z,101646.50
2024-01-24T16:26:17.183Z,101599.59
2024-01-24T16:28:45.917Z,101553.16
2024-01-24T16:31:14.750Z,101531.75
2024-01-24T16:33:43.622Z,101490.97
2024-01-24T16:36:28.437Z,101451.13
2024-01-24T16:39:01.985Z,101427.91
2024-01-24T16:41:31.880Z,101391.94
2024-01-24T16:44:01.811Z,101381.19
2024-01-24T16:46:30.913Z,101364.25
2024-01-24T16:48:59.759Z,101357.66
2024-01-24T16:51:29.890Z,101257.91
2024-01-24T16:53:58.775Z,101361.81
2024-01-24T16:56:27.412Z,101359.41
2024-01-24T16:58:56.080Z,101379.44
2024-01-24T17:01:25.045Z,101399.47
2024-01-24T17:03:53.865Z,101421.41
2024-01-24T17:06:22.672Z,101409.19
2024-01-24T17:08:52.700Z,101398.72
2024-01-24T17:11:21.390Z,101370.69
2024-01-24T17:13:50.102Z,101371.75
2024-01-24T17:16:18.715Z,101360.78
2024-01-24T17:18:47.566Z,101342.44
2024-01-24T17:21:16.495Z,101290.78
2024-01-24T17:23:46.598Z,101317.00
2024-01-24T17:26:17.278Z,101318.69
2024-01-24T17:28:46.588Z,101308.72
2024-01-24T17:31:15.676Z,101328.69
2024-01-24T17:33:44.646Z,101338.28
2024-01-24T17:36:13.331Z,101324.16
2024-01-24T17:38:42.053Z,101334.47
2024-01-24T17:41:10.803Z,101326.84
2024-01-24T17:43:40.804Z,101249.63
2024-01-24T17:46:09.626Z,101366.22
2024-01-24T17:48:40.389Z,101364.53
2024-01-24T17:51:09.516Z,101365.22
2024-01-24T17:53:38.205Z,101360.28
2024-01-24T17:56:07.911Z,101397.69
2024-01-24T17:58:37.125Z,101317.94
2024-01-24T18:01:07.789Z,101414.94
2024-01-24T18:03:36.840Z,101455.09
2024-01-24T18:06:06.540Z,101474.84
2024-01-24T18:08:35.224Z,101503.84
2024-01-24T18:11:03.965Z,101499.88
2024-01-24T18:13:32.653Z,101524.25
2024-01-24T18:16:01.566Z,101549.63
2024-01-24T18:18:31.959Z,101555.44
2024-01-24T18:21:00.892Z,101565.09
2024-01-24T18:23:30.030Z,101558.28
2024-01-24T18:25:58.706Z,101540.50
2024-01-24T18:28:28.797Z,101515.13
2024-01-24T18:30:58.331Z,101511.38
2024-01-24T18:33:27.319Z,101496.50
2024-01-24T18:35:57.798Z,101468.28
2024-01-24T18:38:26.541Z,101443.88
2024-01-24T18:40:55.193Z,101405.84
2024-01-24T18:43:23.906Z,101387.63
2024-01-24T18:45:52.928Z,101361.72
2024-01-24T18:48:22.109Z,101345.94
2024-01-24T18:50:50.850Z,101364.72
2024-01-24T18:53:21.241Z,101370.78
2024-01-24T18:55:49.926Z,101387.44
2024-01-24T18:58:19.126Z,101391.00
2024-01-24T19:00:49.172Z,101415.78
2024-01-24T19:03:26.301Z,101415.41
2024-01-24T19:05:55.428Z,101455.31
2024-01-24T19:08:25.606Z,101458.03
2024-01-24T19:10:54.724Z,101436.97
2024-01-24T19:13:25.205Z,101447.78
2024-01-24T19:15:57.574Z,101427.66
2024-01-24T19:18:27.870Z,101418.72
2024-01-24T19:20:56.815Z,101374.47
2024-01-24T19:23:27.807Z,101373.81
2024-01-24T19:25:57.107Z,101325.25
2024-01-24T19:28:26.052Z,101357.63
2024-01-24T19:30:54.920Z,101353.28
2024-01-24T19:33:23.591Z,101368.81
2024-01-24T19:35:52.296Z,101375.69
2024-01-24T19:38:21.141Z,101352.47
2024-01-24T19:40:51.548Z,101389.13
2024-01-24T19:43:21.780Z,101389.00
2024-01-24T19:45:52.307Z,101381.16
2024-01-24T19:48:21.831Z,101370.66
2024-01-24T19:50:50.873Z,101378.25
2024-01-24T19:53:23.784Z,101382.88
2024-01-24T19:56:00.345Z,101378.31
2024-01-24T19:58:29.069Z,101347.19
2024-01-24T20:00:59.561Z,101372.13
2024-01-24T20:03:28.375Z,101366.16
2024-01-24T20:05:57.055Z,101278.31
2024-01-24T20:08:25.741Z,101376.47
2024-01-24T20:10:54.402Z,101278.97
2024-01-24T20:13:24.528Z,101426.28
2024-01-24T20:15:56.440Z,101436.38
2024-01-24T20:18:27.454Z,101473.66
2024-01-24T20:20:56.443Z,101491.53
2024-01-24T20:23:27.259Z,101503.22
2024-01-24T20:25:57.168Z,101480.41
2024-01-24T20:28:27.146Z,101522.19
2024-01-24T20:30:55.830Z,101518.38
2024-01-24T20:33:24.831Z,101521.25
2024-01-24T20:35:54.440Z,101541.50
2024-01-24T20:38:24.410Z,101563.59
2024-01-24T20:40:53.002Z,101545.44
2024-01-24T20:43:21.701Z,101547.50
2024-01-24T20:45:51.886Z,101552.50
2024-01-24T20:48:20.626Z,101565.94
2024-01-24T20:50:49.345Z,101539.25
2024-01-24T20:53:19.308Z,101542.31
2024-01-24T20:55:48.071Z,101558.25
2024-01-24T20:58:15.755Z,101518.31
2024-01-24T21:00:44.693Z,101497.09
2024-01-24T21:03:15.252Z,101507.91
2024-01-24T21:05:44.786Z,101499.94
2024-01-24T21:08:14.048Z,101496.44
2024-01-24T21:10:49.092Z,101503.59
2024-01-24T21:13:24.932Z,101501.31
2024-01-24T21:15:53.675Z,101488.81
2024-01-24T21:18:24.145Z,101500.63
2024-01-24T21:20:53.170Z,101485.88
2024-01-24T21:23:22.055Z,101485.00
2024-01-24T21:25:50.837Z,101503.41
2024-01-24T21:28:19.484Z,101482.50
2024-01-24T21:30:48.191Z,101459.94
2024-01-24T21:33:17.073Z,101517.44
2024-01-24T21:35:47.480Z,101537.91
2024-01-24T21:38:16.327Z,101536.72
2024-01-24T21:40:45.029Z,101539.69
2024-01-24T21:43:13.857Z,101524.63
2024-01-24T21:45:42.789Z,101523.47
2024-01-24T21:48:11.504Z,101514.06
2024-01-24T21:50:40.649Z,101484.09
2024-01-24T21:53:11.261Z,101476.84
2024-01-24T21:55:40.285Z,101491.53
2024-01-24T21:58:09.428Z,101501.13
2024-01-24T22:00:38.671Z,101502.25
2024-01-24T22:03:08.063Z,101477.41
2024-01-24T22:05:36.757Z,101496.81
2024-01-24T22:08:07.881Z,101498.13
2024-01-24T22:10:38.058Z,101516.72
2024-01-24T22:13:06.827Z,101505.81
2024-01-24T22:15:35.573Z,101532.34
2024-01-24T22:18:04.788Z,101460.59
2024-01-24T22:20:33.525Z,101540.06
2024-01-24T22:23:02.212Z,101554.19
2024-01-24T22:25:30.948Z,101556.66
2024-01-24T22:28:01.070Z,101579.03
2024-01-24T22:30:29.919Z,101572.38
2024-01-24T22:32:59.402Z,101568.09
2024-01-24T22:35:28.259Z,101587.03
2024-01-24T22:37:58.361Z,101576.47
2024-01-24T22:40:27.302Z,101576.88
2024-01-24T22:42:56.005Z,101587.91
2024-01-24T22:45:26.325Z,101564.25
2024-01-24T22:47:56.146Z,101575.31
2024-01-24T22:50:25.234Z,101579.97
2024-01-24T22:52:54.014Z,101570.44
2024-01-24T22:55:22.756Z,101466.25
2024-01-24T22:57:51.897Z,101592.16
2024-01-24T23:00:25.018Z,101583.03
2024-01-24T23:02:53.720Z,101571.06
2024-01-24T23:05:22.403Z,101561.13
2024-01-24T23:07:51.092Z,101584.81
2024-01-24T23:10:20.061Z,101563.06
2024-01-24T23:12:48.923Z,101572.19
2024-01-24T23:15:17.690Z,101556.75
2024-01-24T23:17:48.079Z,101574.53
2024-01-24T23:20:17.070Z,101574.13
2024-01-24T23:22:45.915Z,101572.56
2024-01-24T23:25:14.890Z,101571.81
2024-01-24T23:27:43.793Z,101482.97
2024-01-24T23:30:13.286Z,101565.13
2024-01-24T23:32:42.770Z,101581.44
2024-01-24T23:35:13.111Z,101475.63
2024-01-24T23:37:42.093Z,101577.56
2024-01-24T23:40:12.313Z,101550.69
2024-01-24T23:42:41.171Z,101578.88
2024-01-24T23:45:10.809Z,101600.00
2024-01-24T23:47:39.631Z,101594.59
2024-01-24T23:50:09.820Z,101619.19
2024-01-24T23:52:40.057Z,101621.25
2024-01-24T23:55:09.899Z,101631.00
2024-01-24T23:57:38.695Z,101626.91
